createdAt,value
2018-02-04T00:00:13.507Z,17.81
2018-02-04T00:01:13.483Z,17.86
2018-02-04T00:02:13.443Z,17.86
2018-02-04T00:03:13.439Z,17.87
2018-02-04T00:04:13.418Z,17.86
2018-02-04T00:05:13.396Z,17.78
2018-02-04T00:06:13.379Z,17.74
2018-02-04T00:07:13.333Z,17.79
2018-02-04T00:08:13.315Z,17.77
2018-02-04T00:09:13.319Z,17.75
2018-02-04T00:10:13.265Z,17.66
2018-02-04T00:11:13.248Z,17.62
2018-02-04T00:12:13.230Z,17.81
2018-02-04T00:13:13.201Z,17.78
2018-02-04T00:14:13.184Z,17.81
2018-02-04T00:15:13.156Z,17.78
2018-02-04T00:16:13.139Z,17.89
2018-02-04T00:17:13.121Z,17.75
2018-02-04T00:18:13.102Z,17.82
2018-02-04T00:19:13.078Z,17.77
2018-02-04T00:20:13.060Z,17.81
2018-02-04T00:21:13.060Z,17.75
2018-02-04T00:22:13.016Z,17.75
2018-02-04T00:23:12.993Z,17.75
2018-02-04T00:24:12.970Z,17.79
2018-02-04T00:25:12.973Z,17.77
2018-02-04T00:26:12.954Z,17.77
2018-02-04T00:27:12.907Z,17.79
2018-02-04T00:28:12.896Z,17.82
2018-02-04T00:29:12.888Z,17.90
2018-02-04T00:30:12.844Z,17.79
2018-02-04T00:31:12.824Z,17.82
2018-02-04T00:32:12.803Z,17.78
2018-02-04T00:33:12.778Z,17.89
2018-02-04T00:34:12.758Z,17.90
2018-02-04T00:35:12.736Z,17.84
2018-02-04T00:36:12.747Z,17.87
2018-02-04T00:37:12.696Z,17.81
2018-02-04T00:38:12.686Z,17.78
2018-02-04T00:39:12.649Z,17.74
2018-02-04T00:40:12.631Z,17.72
2018-02-04T00:41:12.645Z,17.86
2018-02-04T00:42:12.587Z,17.79
2018-02-04T00:43:12.596Z,17.79
2018-02-04T00:44:12.569Z,17.77
2018-02-04T00:45:12.528Z,17.86
2018-02-04T00:46:12.530Z,17.79
2018-02-04T00:47:12.509Z,17.77
2018-02-04T00:48:12.487Z,17.64
2018-02-04T00:49:12.445Z,17.64
2018-02-04T00:50:12.414Z,17.72
2018-02-04T00:51:12.393Z,17.68
2018-02-04T00:52:12.386Z,17.71
2018-02-04T00:53:12.353Z,17.70
2018-02-04T00:54:12.356Z,17.63
2018-02-04T00:55:12.311Z,17.66
2018-02-04T00:56:12.314Z,17.63
2018-02-04T00:57:12.266Z,17.62
2018-02-04T00:58:12.270Z,17.58
2018-02-04T00:59:12.223Z,17.59
2018-02-04T01:00:12.206Z,17.58
2018-02-04T01:01:12.213Z,17.56
2018-02-04T01:02:12.184Z,17.63
2018-02-04T01:03:12.142Z,17.56
2018-02-04T01:04:12.146Z,17.64
2018-02-04T01:05:12.099Z,17.64
2018-02-04T01:06:12.083Z,17.63
2018-02-04T01:07:12.062Z,17.62
2018-02-04T01:08:12.044Z,17.59
2018-02-04T01:09:12.019Z,17.55
2018-02-04T01:10:11.997Z,17.54
2018-02-04T01:11:11.972Z,17.54
2018-02-04T01:12:11.963Z,17.54
2018-02-04T01:13:11.936Z,17.52
2018-02-04T01:14:11.916Z,17.49
2018-02-04T01:15:11.895Z,17.51
2018-02-04T01:16:11.869Z,17.48
2018-02-04T01:17:11.841Z,17.48
2018-02-04T01:18:11.819Z,17.55
2018-02-04T01:19:11.804Z,17.62
2018-02-04T01:20:11.792Z,17.59
2018-02-04T01:21:11.767Z,17.64
2018-02-04T01:22:11.737Z,17.59
2018-02-04T01:23:11.715Z,17.59
2018-02-04T01:24:11.689Z,17.49
2018-02-04T01:25:11.695Z,17.51
2018-02-04T01:26:11.674Z,17.51
2018-02-04T01:27:11.657Z,17.49
2018-02-04T01:28:11.623Z,17.54
2018-02-04T01:29:11.618Z,17.54
2018-02-04T01:30:11.562Z,17.46
2018-02-04T01:31:11.576Z,17.48
2018-02-04T01:32:11.522Z,17.48
2018-02-04T01:33:11.496Z,17.48
2018-02-04T01:34:11.491Z,17.44
2018-02-04T01:35:11.470Z,17.48
2018-02-04T01:36:11.435Z,17.34
2018-02-04T01:37:11.423Z,17.46
2018-02-04T01:38:11.423Z,17.40
2018-02-04T01:39:11.397Z,17.30
2018-02-04T01:40:11.355Z,17.26
2018-02-04T01:41:11.329Z,17.33
2018-02-04T01:42:11.311Z,17.36
2018-02-04T01:43:11.312Z,17.36
2018-02-04T01:44:11.269Z,17.46
2018-02-04T01:45:11.272Z,17.41
2018-02-04T01:46:11.255Z,17.48
2018-02-04T01:47:11.231Z,17.44
2018-02-04T01:48:11.180Z,17.48
2018-02-04T01:49:11.162Z,17.40
2018-02-04T01:50:11.168Z,17.37
2018-02-04T01:51:11.115Z,17.28
2018-02-04T01:52:11.097Z,17.36
2018-02-04T01:53:11.105Z,17.36
2018-02-04T01:54:11.078Z,17.44
2018-02-04T01:55:11.032Z,17.38
2018-02-04T01:56:11.022Z,17.36
2018-02-04T01:57:11.000Z,17.43
2018-02-04T01:58:10.997Z,17.46
2018-02-04T01:59:10.972Z,17.46
2018-02-04T02:00:10.936Z,17.55
2018-02-04T02:01:10.906Z,17.55
2018-02-04T02:02:10.911Z,17.55
2018-02-04T02:03:10.861Z,17.59
2018-02-04T02:04:10.866Z,17.72
2018-02-04T02:05:10.844Z,17.70
2018-02-04T02:06:10.808Z,17.79
2018-02-04T02:07:10.788Z,17.77
2018-02-04T02:08:10.757Z,17.84
2018-02-04T02:09:10.746Z,17.89
2018-02-04T02:10:10.712Z,17.90
2018-02-04T02:11:10.723Z,17.96
2018-02-04T02:12:10.669Z,17.97
2018-02-04T02:13:10.649Z,17.93
2018-02-04T02:14:10.631Z,17.92
2018-02-04T02:15:10.633Z,17.96
2018-02-04T02:16:10.615Z,18.00
2018-02-04T02:17:10.592Z,17.99
2018-02-04T02:18:10.547Z,17.93
2018-02-04T02:19:10.540Z,17.90
2018-02-04T02:20:10.502Z,17.81
2018-02-04T02:21:10.508Z,17.90
2018-02-04T02:22:10.464Z,17.82
2018-02-04T02:23:10.467Z,17.81
2018-02-04T02:24:10.417Z,17.72
2018-02-04T02:25:10.397Z,17.72
2018-02-04T02:26:10.375Z,17.71
2018-02-04T02:27:10.353Z,17.77
2018-02-04T02:28:10.335Z,17.74
2018-02-04T02:29:10.341Z,17.75
2018-02-04T02:30:10.295Z,17.96
2018-02-04T02:31:10.281Z,17.82
2018-02-04T02:32:10.253Z,17.93
2018-02-04T02:33:10.254Z,17.96
2018-02-04T02:34:10.209Z,18.11
2018-02-04T02:35:10.189Z,18.11
2018-02-04T02:36:10.194Z,18.15
2018-02-04T02:37:10.149Z,18.18
2018-02-04T02:38:10.139Z,18.11
2018-02-04T02:39:10.102Z,18.14
2018-02-04T02:40:10.084Z,18.25
2018-02-04T02:41:10.090Z,18.25
2018-02-04T02:42:10.042Z,18.18
2018-02-04T02:43:10.020Z,18.25
2018-02-04T02:44:09.999Z,18.21
2018-02-04T02:45:10.007Z,18.25
2018-02-04T02:46:09.954Z,18.29
2018-02-04T02:47:09.936Z,18.36
2018-02-04T02:48:09.944Z,18.33
2018-02-04T02:49:09.894Z,18.35
2018-02-04T02:50:09.878Z,18.30
2018-02-04T02:51:09.878Z,18.36
2018-02-04T02:52:09.844Z,18.37
2018-02-04T02:53:09.817Z,18.26
2018-02-04T02:54:09.790Z,18.29
2018-02-04T02:55:09.802Z,18.29
2018-02-04T02:56:09.748Z,18.30
2018-02-04T02:57:09.755Z,18.25
2018-02-04T02:58:09.722Z,18.20
2018-02-04T02:59:09.715Z,18.21
2018-02-04T03:00:09.692Z,18.29
2018-02-04T03:01:09.677Z,18.21
2018-02-04T03:02:09.627Z,18.23
2018-02-04T03:03:09.604Z,18.26
2018-02-04T03:04:09.612Z,18.21
2018-02-04T03:05:09.594Z,18.30
2018-02-04T03:06:09.565Z,18.30
2018-02-04T03:07:09.548Z,18.29
2018-02-04T03:08:09.512Z,18.36
2018-02-04T03:09:09.503Z,18.32
2018-02-04T03:10:09.456Z,18.37
2018-02-04T03:11:09.467Z,18.33
2018-02-04T03:12:09.416Z,18.36
2018-02-04T03:13:09.424Z,18.30
2018-02-04T03:14:09.387Z,18.30
2018-02-04T03:15:09.373Z,18.26
2018-02-04T03:16:09.333Z,18.26
2018-02-04T03:17:09.341Z,18.17
2018-02-04T03:18:09.317Z,18.25
2018-02-04T03:19:09.297Z,18.25
2018-02-04T03:20:09.261Z,18.26
2018-02-04T03:21:09.225Z,18.26
2018-02-04T03:22:09.223Z,18.18
2018-02-04T03:23:09.201Z,18.20
2018-02-04T03:24:09.169Z,18.23
2018-02-04T03:25:09.163Z,18.17
2018-02-04T03:26:09.128Z,18.17
2018-02-04T03:27:09.123Z,18.17
2018-02-04T03:28:09.101Z,18.20
2018-02-04T03:29:09.066Z,18.08
2018-02-04T03:30:09.047Z,18.18
2018-02-04T03:31:09.023Z,18.14
2018-02-04T03:32:09.032Z,18.14
2018-02-04T03:33:08.982Z,18.17
2018-02-04T03:34:08.966Z,18.15
2018-02-04T03:35:08.952Z,18.12
2018-02-04T03:36:08.928Z,18.07
2018-02-04T03:37:08.896Z,18.07
2018-02-04T03:38:08.905Z,18.07
2018-02-04T03:39:08.881Z,18.11
2018-02-04T03:40:08.831Z,18.12
2018-02-04T03:41:08.821Z,18.00
2018-02-04T03:42:08.821Z,18.07
2018-02-04T03:43:08.771Z,18.00
2018-02-04T03:44:08.751Z,18.07
2018-02-04T03:45:08.737Z,18.02
2018-02-04T03:46:08.710Z,17.90
2018-02-04T03:47:08.713Z,17.96
2018-02-04T03:48:08.684Z,17.96
2018-02-04T03:49:08.676Z,17.87
2018-02-04T03:50:08.634Z,17.86
2018-02-04T03:51:08.605Z,17.86
2018-02-04T03:52:08.590Z,17.81
2018-02-04T03:53:08.559Z,17.78
2018-02-04T03:54:08.566Z,17.70
2018-02-04T03:55:08.526Z,17.77
2018-02-04T03:56:08.504Z,17.72
2018-02-04T03:57:08.497Z,17.68
2018-02-04T03:58:08.485Z,17.70
2018-02-04T03:59:08.464Z,17.68
2018-02-04T04:00:08.439Z,17.56
2018-02-04T04:01:08.395Z,17.49
2018-02-04T04:02:08.375Z,17.52
2018-02-04T04:03:08.379Z,17.54
2018-02-04T04:04:08.325Z,17.63
2018-02-04T04:05:08.305Z,17.55
2018-02-04T04:06:08.302Z,17.56
2018-02-04T04:07:08.280Z,17.48
2018-02-04T04:08:08.244Z,17.48
2018-02-04T04:09:08.221Z,17.48
2018-02-04T04:10:08.202Z,17.41
2018-02-04T04:11:08.221Z,17.37
2018-02-04T04:12:08.167Z,17.40
2018-02-04T04:13:08.164Z,17.34
2018-02-04T04:14:08.115Z,17.34
2018-02-04T04:15:08.110Z,17.36
2018-02-04T04:16:08.077Z,17.33
2018-02-04T04:17:08.054Z,17.36
2018-02-04T04:18:08.033Z,17.34
2018-02-04T04:19:08.038Z,17.33
2018-02-04T04:20:07.993Z,17.33
2018-02-04T04:21:07.979Z,17.44
2018-02-04T04:22:07.971Z,17.40
2018-02-04T04:23:07.950Z,17.34
2018-02-04T04:24:07.906Z,17.40
2018-02-04T04:25:07.911Z,17.40
2018-02-04T04:26:07.866Z,17.40
2018-02-04T04:27:07.864Z,17.37
2018-02-04T04:28:08.363Z,17.34
2018-02-04T04:29:07.796Z,17.33
2018-02-04T04:30:07.804Z,17.30
2018-02-04T04:31:07.770Z,17.36
2018-02-04T04:32:07.739Z,17.41
2018-02-04T04:33:07.735Z,17.38
2018-02-04T04:34:07.718Z,17.37
2018-02-04T04:35:08.234Z,17.40
2018-02-04T04:36:07.644Z,17.36
2018-02-04T04:37:07.633Z,17.38
2018-02-04T04:38:07.636Z,17.36
2018-02-04T04:39:07.611Z,17.33
2018-02-04T04:40:07.559Z,17.30
2018-02-04T04:41:07.538Z,17.33
2018-02-04T04:42:07.552Z,17.37
2018-02-04T04:43:07.496Z,17.33
2018-02-04T04:44:07.504Z,17.36
2018-02-04T04:45:07.479Z,17.21
2018-02-04T04:46:07.458Z,17.34
2018-02-04T04:47:07.411Z,17.33
2018-02-04T04:48:07.415Z,17.38
2018-02-04T04:49:07.374Z,17.26
2018-02-04T04:50:07.347Z,17.37
2018-02-04T04:51:07.334Z,17.40
2018-02-04T04:52:07.316Z,17.30
2018-02-04T04:53:07.293Z,17.22
2018-02-04T04:54:07.261Z,17.28
2018-02-04T04:55:07.256Z,17.26
2018-02-04T04:56:07.232Z,17.30
2018-02-04T04:57:07.196Z,17.23
2018-02-04T04:58:07.183Z,17.30
2018-02-04T04:59:07.167Z,17.23
2018-02-04T05:00:07.163Z,17.23
2018-02-04T05:01:07.110Z,17.15
2018-02-04T05:02:07.116Z,17.19
2018-02-04T05:03:07.094Z,17.28
2018-02-04T05:04:07.064Z,17.19
2018-02-04T05:05:07.045Z,17.25
2018-02-04T05:06:07.007Z,17.25
2018-02-04T05:07:07.012Z,17.28
2018-02-04T05:08:06.958Z,17.16
2018-02-04T05:09:06.939Z,17.18
2018-02-04T05:10:06.944Z,17.22
2018-02-04T05:11:06.927Z,17.21
2018-02-04T05:12:06.885Z,17.31
2018-02-04T05:13:06.883Z,17.44
2018-02-04T05:14:06.845Z,17.36
2018-02-04T05:15:06.815Z,17.56
2018-02-04T05:16:06.816Z,17.54
2018-02-04T05:17:06.796Z,17.66
2018-02-04T05:18:06.753Z,17.63
2018-02-04T05:19:06.727Z,17.66
2018-02-04T05:20:06.705Z,17.64
2018-02-04T05:21:06.709Z,17.70
2018-02-04T05:22:06.660Z,17.66
2018-02-04T05:23:06.641Z,17.68
2018-02-04T05:24:06.635Z,17.62
2018-02-04T05:25:06.599Z,17.68
2018-02-04T05:26:06.606Z,17.75
2018-02-04T05:27:06.556Z,17.71
2018-02-04T05:28:06.540Z,17.74
2018-02-04T05:29:06.547Z,17.71
2018-02-04T05:30:06.506Z,17.81
2018-02-04T05:31:06.480Z,17.86
2018-02-04T05:32:06.461Z,17.78
2018-02-04T05:33:06.443Z,17.79
2018-02-04T05:34:06.426Z,17.81
2018-02-04T05:35:06.392Z,17.79
2018-02-04T05:36:06.372Z,17.78
2018-02-04T05:37:06.342Z,17.86
2018-02-04T05:38:06.349Z,17.77
2018-02-04T05:39:06.302Z,17.78
2018-02-04T05:40:06.289Z,17.93
2018-02-04T05:41:06.289Z,17.93
2018-02-04T05:42:06.249Z,17.86
2018-02-04T05:43:06.248Z,17.92
2018-02-04T05:44:06.218Z,17.87
2018-02-04T05:45:06.180Z,17.96
2018-02-04T05:46:06.156Z,17.95
2018-02-04T05:47:06.138Z,17.93
2018-02-04T05:48:06.114Z,18.02
2018-02-04T05:49:06.095Z,17.99
2018-02-04T05:50:06.101Z,17.96
2018-02-04T05:51:06.052Z,18.03
2018-02-04T05:52:06.062Z,18.03
2018-02-04T05:53:06.040Z,18.00
2018-02-04T05:54:06.021Z,18.02
2018-02-04T05:55:05.969Z,18.11
2018-02-04T05:56:05.962Z,18.14
2018-02-04T05:57:05.948Z,18.10
2018-02-04T05:58:05.903Z,18.11
2018-02-04T05:59:05.912Z,18.03
2018-02-04T06:00:05.888Z,18.07
2018-02-04T06:01:05.854Z,18.07
2018-02-04T06:02:05.823Z,18.05
2018-02-04T06:03:05.828Z,18.12
2018-02-04T06:04:05.777Z,18.08
2018-02-04T06:05:05.757Z,18.11
2018-02-04T06:06:05.738Z,18.15
2018-02-04T06:07:05.715Z,18.11
2018-02-04T06:08:05.722Z,18.11
2018-02-04T06:09:05.672Z,18.02
2018-02-04T06:10:05.681Z,18.02
2018-02-04T06:11:05.655Z,18.08
2018-02-04T06:12:05.639Z,17.99
2018-02-04T06:13:05.620Z,18.02
2018-02-04T06:14:05.568Z,18.02
2018-02-04T06:15:05.563Z,18.00
2018-02-04T06:16:05.544Z,17.92
2018-02-04T06:17:05.524Z,17.95
2018-02-04T06:18:05.488Z,17.97
2018-02-04T06:19:05.463Z,17.95
2018-02-04T06:20:05.447Z,17.97
2018-02-04T06:21:05.421Z,17.82
2018-02-04T06:22:05.405Z,17.84
2018-02-04T06:23:05.405Z,17.77
2018-02-04T06:24:05.358Z,17.86
2018-02-04T06:25:05.356Z,17.82
2018-02-04T06:26:05.342Z,17.79
2018-02-04T06:27:05.303Z,17.82
2018-02-04T06:28:05.285Z,17.75
2018-02-04T06:29:05.278Z,17.71
2018-02-04T06:30:05.257Z,17.64
2018-02-04T06:31:05.223Z,17.71
2018-02-04T06:32:05.196Z,17.63
2018-02-04T06:33:05.161Z,17.58
2018-02-04T06:34:05.172Z,17.63
2018-02-04T06:35:05.150Z,17.71
2018-02-04T06:36:05.107Z,17.81
2018-02-04T06:37:05.079Z,17.82
2018-02-04T06:38:05.091Z,17.74
2018-02-04T06:39:05.069Z,17.84
2018-02-04T06:40:05.025Z,17.82
2018-02-04T06:41:04.998Z,17.87
2018-02-04T06:42:05.009Z,17.97
2018-02-04T06:43:04.986Z,17.95
2018-02-04T06:44:04.942Z,17.99
2018-02-04T06:45:04.914Z,17.97
2018-02-04T06:46:04.897Z,17.99
2018-02-04T06:47:04.872Z,17.96
2018-02-04T06:48:04.870Z,17.97
2018-02-04T06:49:04.847Z,17.95
2018-02-04T06:50:04.808Z,17.95
2018-02-04T06:51:04.814Z,17.87
2018-02-04T06:52:04.765Z,17.93
2018-02-04T06:53:04.821Z,17.78
2018-02-04T06:54:04.750Z,17.84
2018-02-04T06:55:04.707Z,17.75
2018-02-04T06:56:04.700Z,17.68
2018-02-04T06:57:04.661Z,17.62
2018-02-04T06:58:04.647Z,17.52
2018-02-04T06:59:04.620Z,17.51
2018-02-04T07:00:04.598Z,17.48
2018-02-04T07:01:04.576Z,17.46
2018-02-04T07:02:04.556Z,17.43
2018-02-04T07:03:04.563Z,17.43
2018-02-04T07:04:04.514Z,17.48
2018-02-04T07:05:04.494Z,17.40
2018-02-04T07:06:04.471Z,17.30
2018-02-04T07:07:04.453Z,17.34
2018-02-04T07:08:04.445Z,17.41
2018-02-04T07:09:04.419Z,17.40
2018-02-04T07:10:04.411Z,17.31
2018-02-04T07:11:04.379Z,17.34
2018-02-04T07:12:04.346Z,17.25
2018-02-04T07:13:04.325Z,17.25
2018-02-04T07:14:04.332Z,17.23
2018-02-04T07:15:04.305Z,17.19
2018-02-04T07:16:04.291Z,17.19
2018-02-04T07:17:04.262Z,17.07
2018-02-04T07:18:04.248Z,17.21
2018-02-04T07:19:04.200Z,17.22
2018-02-04T07:20:04.198Z,17.25
2018-02-04T07:21:04.148Z,17.21
2018-02-04T07:22:04.143Z,17.33
2018-02-04T07:23:04.133Z,17.21
2018-02-04T07:24:04.081Z,17.21
2018-02-04T07:25:04.068Z,17.22
2018-02-04T07:26:04.044Z,17.25
2018-02-04T07:27:04.035Z,17.23
2018-02-04T07:28:04.036Z,17.25
2018-02-04T07:29:03.978Z,17.28
2018-02-04T07:30:03.959Z,17.30
2018-02-04T07:31:03.962Z,17.30
2018-02-04T07:32:03.944Z,17.19
2018-02-04T07:33:03.893Z,17.19
2018-02-04T07:34:03.869Z,17.16
2018-02-04T07:35:03.854Z,17.25
2018-02-04T07:36:03.859Z,17.22
2018-02-04T07:37:03.836Z,17.34
2018-02-04T07:38:03.813Z,17.22
2018-02-04T07:39:03.793Z,17.30
2018-02-04T07:40:03.751Z,17.25
2018-02-04T07:41:03.745Z,17.19
2018-02-04T07:42:03.711Z,17.21
2018-02-04T07:43:03.678Z,17.19
2018-02-04T07:44:03.681Z,17.18
2018-02-04T07:45:03.635Z,17.22
2018-02-04T07:46:03.642Z,17.23
2018-02-04T07:47:03.592Z,17.19
2018-02-04T07:48:03.586Z,17.26
2018-02-04T07:49:03.574Z,17.21
2018-02-04T07:50:03.555Z,17.25
2018-02-04T07:51:03.518Z,17.19
2018-02-04T07:52:03.496Z,17.16
2018-02-04T07:53:03.490Z,17.19
2018-02-04T07:54:03.477Z,17.18
2018-02-04T07:55:03.449Z,17.19
2018-02-04T07:56:03.424Z,17.04
2018-02-04T07:57:03.935Z,17.07
2018-02-04T07:58:03.354Z,17.08
2018-02-04T07:59:03.363Z,17.04
2018-02-04T08:00:03.316Z,17.08
2018-02-04T08:01:03.318Z,17.06
2018-02-04T08:02:03.294Z,17.11
2018-02-04T08:03:03.249Z,17.06
2018-02-04T08:04:03.251Z,17.08
2018-02-04T08:05:03.207Z,17.07
2018-02-04T08:06:03.211Z,17.14
2018-02-04T08:07:03.173Z,17.14
2018-02-04T08:08:03.141Z,17.11
2018-02-04T08:09:03.125Z,17.00
2018-02-04T08:10:03.111Z,17.04
2018-02-04T08:11:03.078Z,16.96
2018-02-04T08:12:03.052Z,17.01
2018-02-04T08:13:03.059Z,17.01
2018-02-04T08:14:03.009Z,16.96
2018-02-04T08:15:02.992Z,17.01
2018-02-04T08:16:02.979Z,17.06
2018-02-04T08:17:03.516Z,17.04
2018-02-04T08:18:02.949Z,17.00
2018-02-04T08:19:02.934Z,17.06
2018-02-04T08:20:02.906Z,17.18
2018-02-04T08:21:02.858Z,17.14
2018-02-04T08:22:02.838Z,17.15
2018-02-04T08:23:02.820Z,17.08
2018-02-04T08:24:03.359Z,17.12
2018-02-04T08:25:02.771Z,17.06
2018-02-04T08:26:02.754Z,17.07
2018-02-04T08:27:02.755Z,17.04
2018-02-04T08:28:02.711Z,17.12
2018-02-04T08:29:02.716Z,17.06
2018-02-04T08:30:02.696Z,17.07
2018-02-04T08:31:02.669Z,17.04
2018-02-04T08:32:02.651Z,17.06
2018-02-04T08:33:02.626Z,17.11
2018-02-04T08:34:02.591Z,17.03
2018-02-04T08:35:02.560Z,17.12
2018-02-04T08:36:02.549Z,17.19
2018-02-04T08:37:02.543Z,17.19
2018-02-04T08:38:02.524Z,17.19
2018-02-04T08:39:02.482Z,17.26
2018-02-04T08:40:02.476Z,17.25
2018-02-04T08:41:02.424Z,17.23
2018-02-04T08:42:02.434Z,17.21
2018-02-04T08:43:02.389Z,17.22
2018-02-04T08:44:02.372Z,17.22
2018-02-04T08:45:02.355Z,17.25
2018-02-04T08:46:02.348Z,17.26
2018-02-04T08:47:02.306Z,17.25
2018-02-04T08:48:02.275Z,17.33
2018-02-04T08:49:02.282Z,17.30
2018-02-04T08:50:02.260Z,17.37
2018-02-04T08:51:02.218Z,17.37
2018-02-04T08:52:02.226Z,17.48
2018-02-04T08:53:02.174Z,17.51
2018-02-04T08:54:02.148Z,17.52
2018-02-04T08:55:02.143Z,17.62
2018-02-04T08:56:02.107Z,17.68
2018-02-04T08:57:02.113Z,17.66
2018-02-04T08:58:02.068Z,17.63
2018-02-04T08:59:02.042Z,17.68
2018-02-04T09:00:02.028Z,17.71
2018-02-04T09:01:02.013Z,17.75
2018-02-04T09:02:02.004Z,17.68
2018-02-04T09:03:01.975Z,17.68
2018-02-04T09:04:01.940Z,17.66
2018-02-04T09:05:01.918Z,17.62
2018-02-04T09:06:01.894Z,17.74
2018-02-04T09:07:01.903Z,17.74
2018-02-04T09:08:01.879Z,17.77
2018-02-04T09:09:01.857Z,17.72
2018-02-04T09:10:01.837Z,17.86
2018-02-04T09:11:01.819Z,17.77
2018-02-04T09:12:01.767Z,17.82
2018-02-04T09:13:01.773Z,17.86
2018-02-04T09:14:01.729Z,17.90
2018-02-04T09:15:01.707Z,17.99
2018-02-04T09:16:01.713Z,18.10
2018-02-04T09:17:01.697Z,18.25
2018-02-04T09:18:01.645Z,18.27
2018-02-04T09:19:02.189Z,18.30
2018-02-04T09:20:01.632Z,18.32
2018-02-04T09:21:01.586Z,18.32
2018-02-04T09:22:01.576Z,18.36
2018-02-04T09:23:01.540Z,18.42
2018-02-04T09:24:01.553Z,18.35
2018-02-04T09:25:01.527Z,18.33
2018-02-04T09:26:01.478Z,18.39
2018-02-04T09:27:01.466Z,18.41
2018-02-04T09:28:01.485Z,18.50
2018-02-04T09:29:01.444Z,18.60
2018-02-04T09:30:01.428Z,18.90
2018-02-04T09:31:01.404Z,19.19
2018-02-04T09:32:01.371Z,19.41
2018-02-04T09:33:01.338Z,19.56
2018-02-04T09:34:01.343Z,19.61
2018-02-04T09:35:01.308Z,19.74
2018-02-04T09:36:01.302Z,19.80
2018-02-04T09:37:01.285Z,19.87
2018-02-04T09:38:01.239Z,19.96
2018-02-04T09:39:01.243Z,20.23
2018-02-04T09:40:01.198Z,20.48
2018-02-04T09:41:01.182Z,20.57
2018-02-04T09:42:01.161Z,20.47
2018-02-04T09:43:01.175Z,20.36
2018-02-04T09:44:01.119Z,20.43
2018-02-04T09:45:01.115Z,20.50
2018-02-04T09:46:01.112Z,20.80
2018-02-04T09:47:01.098Z,20.99
2018-02-04T09:48:01.046Z,21.13
2018-02-04T09:49:01.058Z,21.24
2018-02-04T09:50:01.009Z,21.47
2018-02-04T09:51:01.003Z,21.53
2018-02-04T09:52:00.975Z,21.71
2018-02-04T09:53:00.954Z,21.52
2018-02-04T09:54:00.966Z,21.43
2018-02-04T09:55:00.947Z,21.38
2018-02-04T09:56:00.927Z,21.40
2018-02-04T09:57:00.898Z,21.47
2018-02-04T09:58:00.865Z,21.47
2018-02-04T09:59:00.872Z,21.35
2018-02-04T10:00:00.859Z,21.21
2018-02-04T10:01:00.841Z,21.19
2018-02-04T10:02:00.810Z,20.97
2018-02-04T10:03:00.784Z,20.82
2018-02-04T10:04:00.786Z,20.62
2018-02-04T10:05:00.768Z,20.42
2018-02-04T10:06:00.728Z,20.55
2018-02-04T10:07:00.732Z,20.55
2018-02-04T10:08:00.700Z,20.57
2018-02-04T10:09:00.666Z,20.54
2018-02-04T10:10:00.650Z,20.57
2018-02-04T10:11:00.642Z,20.52
2018-02-04T10:12:00.624Z,20.54
2018-02-04T10:13:00.626Z,20.57
2018-02-04T10:14:00.606Z,20.70
2018-02-04T10:15:00.589Z,20.67
2018-02-04T10:16:00.549Z,20.50
2018-02-04T10:17:00.531Z,20.50
2018-02-04T10:18:00.507Z,20.42
2018-02-04T10:19:00.517Z,20.41
2018-02-04T10:20:00.502Z,20.28
2018-02-04T10:21:00.480Z,20.20
2018-02-04T10:22:00.440Z,20.14
2018-02-04T10:23:00.430Z,19.98
2018-02-04T10:24:00.426Z,19.80
2018-02-04T10:25:00.395Z,19.80
2018-02-04T10:26:00.376Z,19.66
2018-02-04T10:27:00.361Z,19.55
2018-02-04T10:28:00.337Z,19.51
2018-02-04T10:29:00.320Z,19.61
2018-02-04T10:30:00.319Z,19.84
2018-02-04T10:31:00.284Z,20.11
2018-02-04T10:32:00.269Z,20.10
2018-02-04T10:33:00.235Z,20.20
2018-02-04T10:34:00.242Z,20.31
2018-02-04T10:35:00.230Z,20.32
2018-02-04T10:36:00.184Z,20.50
2018-02-04T10:37:00.164Z,20.42
2018-02-04T10:38:00.146Z,20.57
2018-02-04T10:39:00.149Z,20.57
2018-02-04T10:40:00.107Z,20.67
2018-02-04T10:41:00.092Z,20.58
2018-02-04T10:42:00.073Z,20.54
2018-02-04T10:43:00.082Z,20.57
2018-02-04T10:44:00.041Z,20.64
2018-02-04T10:45:00.033Z,20.74
2018-02-04T10:46:00.001Z,20.69
2018-02-04T10:46:59.983Z,20.77
2018-02-04T10:48:00.053Z,20.73
2018-02-04T10:48:59.952Z,20.69
2018-02-04T10:49:59.956Z,20.64
2018-02-04T10:50:59.938Z,20.62
2018-02-04T10:51:59.920Z,20.61
2018-02-04T10:52:59.872Z,20.79
2018-02-04T10:53:59.870Z,20.95
2018-02-04T10:54:59.844Z,21.10
2018-02-04T10:55:59.828Z,21.56
2018-02-04T10:56:59.832Z,21.53
2018-02-04T10:57:59.812Z,21.54
2018-02-04T10:58:59.796Z,21.47
2018-02-04T10:59:59.777Z,21.64
2018-02-04T11:00:59.764Z,21.83
2018-02-04T11:01:59.713Z,22.09
2018-02-04T11:02:59.730Z,22.47
2018-02-04T11:03:59.685Z,22.67
2018-02-04T11:04:59.693Z,22.72
2018-02-04T11:05:59.677Z,22.49
2018-02-04T11:06:59.634Z,22.33
2018-02-04T11:07:59.631Z,22.43
2018-02-04T11:08:59.629Z,22.75
2018-02-04T11:09:59.610Z,23.00
2018-02-04T11:10:59.573Z,23.00
2018-02-04T11:11:59.584Z,23.04
2018-02-04T11:12:59.547Z,23.07
2018-02-04T11:13:59.535Z,23.02
2018-02-04T11:14:59.518Z,22.62
2018-02-04T11:15:59.523Z,22.54
2018-02-04T11:16:59.484Z,22.57
2018-02-04T11:17:59.473Z,22.60
2018-02-04T11:18:59.446Z,22.46
2018-02-04T11:19:59.463Z,22.20
2018-02-04T11:20:59.444Z,22.20
2018-02-04T11:21:59.428Z,22.21
2018-02-04T11:22:59.416Z,21.77
2018-02-04T11:23:59.371Z,21.77
2018-02-04T11:24:59.358Z,21.90
2018-02-04T11:25:59.351Z,22.00
2018-02-04T11:26:59.339Z,21.79
2018-02-04T11:27:59.315Z,21.44
2018-02-04T11:28:59.307Z,21.56
2018-02-04T11:29:59.279Z,21.84
2018-02-04T11:30:59.270Z,22.28
2018-02-04T11:31:59.247Z,22.72
2018-02-04T11:32:59.232Z,23.00
2018-02-04T11:33:59.248Z,23.17
2018-02-04T11:34:59.233Z,23.01
2018-02-04T11:35:59.187Z,22.76
2018-02-04T11:36:59.196Z,22.51
2018-02-04T11:37:59.722Z,22.49
2018-02-04T11:38:59.141Z,22.33
2018-02-04T11:39:59.156Z,22.07
2018-02-04T11:40:59.110Z,21.90
2018-02-04T11:41:59.101Z,22.14
2018-02-04T11:42:59.107Z,22.25
2018-02-04T11:43:59.064Z,22.25
2018-02-04T11:44:59.045Z,22.18
2018-02-04T11:45:59.033Z,22.02
2018-02-04T11:46:59.041Z,22.00
2018-02-04T11:47:59.000Z,21.94
2018-02-04T11:48:59.014Z,22.02
2018-02-04T11:49:58.977Z,22.37
2018-02-04T11:50:58.967Z,22.52
2018-02-04T11:51:58.950Z,22.68
2018-02-04T11:52:58.933Z,23.04
2018-02-04T11:53:58.907Z,23.58
2018-02-04T11:54:58.921Z,23.95
2018-02-04T11:55:58.879Z,24.15
2018-02-04T11:56:58.865Z,24.00
2018-02-04T11:57:58.851Z,24.16
2018-02-04T11:58:58.834Z,24.60
2018-02-04T11:59:58.828Z,25.15
2018-02-04T12:00:58.810Z,25.57
2018-02-04T12:01:58.822Z,25.57
2018-02-04T12:02:58.781Z,25.03
2018-02-04T12:03:58.780Z,24.64
2018-02-04T12:04:58.757Z,24.09
2018-02-04T12:05:58.770Z,24.09
2018-02-04T12:06:58.743Z,23.90
2018-02-04T12:07:58.718Z,24.00
2018-02-04T12:08:58.702Z,24.16
2018-02-04T12:09:58.704Z,24.24
2018-02-04T12:10:58.683Z,24.12
2018-02-04T12:11:58.677Z,23.85
2018-02-04T12:12:58.663Z,23.72
2018-02-04T12:13:58.667Z,23.63
2018-02-04T12:14:58.631Z,23.87
2018-02-04T12:15:58.629Z,24.16
2018-02-04T12:16:58.602Z,24.25
2018-02-04T12:17:58.590Z,23.84
2018-02-04T12:18:58.577Z,23.57
2018-02-04T12:19:58.591Z,23.73
2018-02-04T12:20:58.548Z,24.13
2018-02-04T12:21:58.534Z,24.21
2018-02-04T12:22:58.523Z,24.37
2018-02-04T12:23:58.539Z,24.61
2018-02-04T12:24:58.515Z,24.78
2018-02-04T12:25:58.487Z,25.17
2018-02-04T12:26:58.501Z,25.55
2018-02-04T12:27:58.475Z,25.54
2018-02-04T12:28:58.481Z,25.76
2018-02-04T12:29:58.441Z,26.12
2018-02-04T12:30:58.457Z,26.15
2018-02-04T12:31:58.414Z,26.25
2018-02-04T12:32:58.412Z,26.43
2018-02-04T12:33:58.395Z,26.65
2018-02-04T12:34:58.392Z,26.99
2018-02-04T12:35:58.382Z,26.87
2018-02-04T12:36:58.366Z,26.95
2018-02-04T12:37:58.387Z,27.09
2018-02-04T12:38:58.347Z,26.89
2018-02-04T12:39:58.345Z,27.03
2018-02-04T12:40:58.333Z,27.09
2018-02-04T12:41:58.316Z,27.00
2018-02-04T12:42:58.315Z,26.55
2018-02-04T12:43:58.305Z,26.13
2018-02-04T12:44:58.304Z,25.67
2018-02-04T12:45:58.308Z,25.42
2018-02-04T12:46:58.305Z,25.18
2018-02-04T12:47:58.267Z,25.09
2018-02-04T12:48:58.254Z,25.32
2018-02-04T12:49:58.273Z,25.28
2018-02-04T12:50:58.242Z,25.28
2018-02-04T12:51:58.261Z,25.42